sensor_id;sensor_type;location;lat;lon;timestamp;pressure;altitude;pressure_sealevel;temperature;humidity
44765;BME280;30484;52.382;5.260;2022-11-11T00:00:15;102817.00;;;15.40;100.00
44765;BME280;30484;52.382;5.260;2022-11-11T00:02:45;102831.06;;;14.75;100.00
44765;BME280;30484;52.382;5.260;2022-11-11T00:05:17;102824.03;;;14.96;100.00
44765;BME280;30484;52.382;5.260;2022-11-11T00:07:46;102832.28;;;14.66;100.00
44765;BME280;30484;52.382;5.260;2022-11-11T00:10:15;102835.50;;;14.24;100.00
44765;BME280;30484;52.382;5.260;2022-11-11T00:12:44;102831.38;;;14.39;100.00
44765;BME280;30484;52.382;5.260;2022-11-11T00:15:12;102842.81;;;14.46;100.00
44765;BME280;30484;52.382;5.260;2022-11-11T00:17:41;102826.34;;;14.30;100.00
44765;BME280;30484;52.382;5.260;2022-11-11T00:20:28;102852.03;;;14.12;100.00
44765;BME280;30484;52.382;5.260;2022-11-11T00:23:21;102852.13;;;14.09;100.00
44765;BME280;30484;52.382;5.260;2022-11-11T00:26:09;102845.16;;;14.03;100.00
44765;BME280;30484;52.382;5.260;2022-11-11T00:28:58;102858.44;;;14.35;100.00
44765;BME280;30484;52.382;5.260;2022-11-11T00:31:27;102851.00;;;14.16;100.00
44765;BME280;30484;52.382;5.260;2022-11-11T00:33:55;102856.75;;;13.77;100.00
44765;BME280;30484;52.382;5.260;2022-11-11T00:36:26;102845.63;;;14.16;100.00
44765;BME280;30484;52.382;5.260;2022-11-11T00:38:54;102836.34;;;14.25;100.00
44765;BME280;30484;52.382;5.260;2022-11-11T00:41:24;102827.66;;;14.18;100.00
44765;BME280;30484;52.382;5.260;2022-11-11T00:43:54;102838.16;;;13.69;100.00
44765;BME280;30484;52.382;5.260;2022-11-11T00:46:22;102831.22;;;13.32;100.00
44765;BME280;30484;52.382;5.260;2022-11-11T00:49:09;102836.91;;;13.81;100.00
44765;BME280;30484;52.382;5.260;2022-11-11T00:51:56;102839.00;;;13.71;100.00
44765;BME280;30484;52.382;5.260;2022-11-11T00:54:25;102829.56;;;13.58;100.00
44765;BME280;30484;52.382;5.260;2022-11-11T00:56:54;102836.13;;;13.77;100.00
44765;BME280;30484;52.382;5.260;2022-11-11T00:59:23;102844.84;;;13.56;100.00
44765;BME280;30484;52.382;5.260;2022-11-11T01:01:51;102840.63;;;13.77;100.00
44765;BME280;30484;52.382;5.260;2022-11-11T01:04:21;102830.16;;;13.68;100.00
44765;BME280;30484;52.382;5.260;2022-11-11T01:06:50;102851.53;;;13.71;100.00
44765;BME280;30484;52.382;5.260;2022-11-11T01:09:21;102846.47;;;13.61;100.00
44765;BME280;30484;52.382;5.260;2022-11-11T01:11:50;102845.56;;;13.62;100.00
44765;BME280;30484;52.382;5.260;2022-11-11T01:14:19;102860.00;;;13.58;100.00
44765;BME280;30484;52.382;5.260;2022-11-11T01:16:48;102866.19;;;13.60;100.00
44765;BME280;30484;52.382;5.260;2022-11-11T01:19:17;102862.22;;;13.74;100.00
44765;BME280;30484;52.382;5.260;2022-11-11T01:21:46;102869.38;;;13.43;100.00
44765;BME280;30484;52.382;5.260;2022-11-11T01:24:15;102868.41;;;13.76;100.00
44765;BME280;30484;52.382;5.260;2022-11-11T01:26:45;102882.53;;;13.83;100.00
44765;BME280;30484;52.382;5.260;2022-11-11T01:29:17;102882.72;;;13.76;100.00
44765;BME280;30484;52.382;5.260;2022-11-11T01:31:46;102884.00;;;13.93;100.00
44765;BME280;30484;52.382;5.260;2022-11-11T01:34:15;102885.78;;;13.64;100.00
44765;BME280;30484;52.382;5.260;2022-11-11T01:36:45;102882.38;;;13.87;100.00
44765;BME280;30484;52.382;5.260;2022-11-11T01:39:14;102869.44;;;13.72;100.00
44765;BME280;30484;52.382;5.260;2022-11-11T01:41:42;102872.88;;;13.47;100.00
44765;BME280;30484;52.382;5.260;2022-11-11T01:44:44;102872.38;;;13.64;100.00
44765;BME280;30484;52.382;5.260;2022-11-11T01:47:15;102872.88;;;13.47;100.00
44765;BME280;30484;52.382;5.260;2022-11-11T01:49:51;102861.19;;;13.48;100.00
44765;BME280;30484;52.382;5.260;2022-11-11T01:52:25;102848.28;;;13.29;100.00
44765;BME280;30484;52.382;5.260;2022-11-11T01:54:57;102845.56;;;13.01;100.00
44765;BME280;30484;52.382;5.260;2022-11-11T01:57:33;102842.59;;;13.42;100.00
44765;BME280;30484;52.382;5.260;2022-11-11T02:00:17;102842.81;;;13.34;100.00
44765;BME280;30484;52.382;5.260;2022-11-11T02:02:50;102829.66;;;13.55;100.00
44765;BME280;30484;52.382;5.260;2022-11-11T02:05:22;102817.72;;;13.35;100.00
44765;BME280;30484;52.382;5.260;2022-11-11T02:08:12;102835.66;;;13.35;100.00
44765;BME280;30484;52.382;5.260;2022-11-11T02:10:44;102819.78;;;13.25;100.00
44765;BME280;30484;52.382;5.260;2022-11-11T02:13:15;102830.47;;;13.58;100.00
44765;BME280;30484;52.382;5.260;2022-11-11T02:16:02;102830.03;;;13.42;100.00
44765;BME280;30484;52.382;5.260;2022-11-11T02:18:32;102844.03;;;13.22;100.00
44765;BME280;30484;52.382;5.260;2022-11-11T02:21:01;102838.53;;;13.27;100.00
44765;BME280;30484;52.382;5.260;2022-11-11T02:23:36;102840.13;;;13.34;100.00
44765;BME280;30484;52.382;5.260;2022-11-11T02:26:09;102834.19;;;13.23;100.00
44765;BME280;30484;52.382;5.260;2022-11-11T02:28:38;102839.19;;;13.35;100.00
44765;BME280;30484;52.382;5.260;2022-11-11T02:31:08;102834.75;;;13.34;100.00
44765;BME280;30484;52.382;5.260;2022-11-11T02:33:37;102836.84;;;13.54;100.00
44765;BME280;30484;52.382;5.260;2022-11-11T02:36:10;102831.31;;;13.29;100.00
44765;BME280;30484;52.382;5.260;2022-11-11T02:38:42;102841.91;;;13.34;100.00
44765;BME280;30484;52.382;5.260;2022-11-11T02:41:12;102858.38;;;13.21;100.00
44765;BME280;30484;52.382;5.260;2022-11-11T02:43:58;102860.50;;;13.71;100.00
44765;BME280;30484;52.382;5.260;2022-11-11T02:46:27;102862.09;;;13.49;100.00
44765;BME280;30484;52.382;5.260;2022-11-11T02:48:56;102878.09;;;13.81;100.00
44765;BME280;30484;52.382;5.260;2022-11-11T02:51:24;102863.34;;;13.65;100.00
44765;BME280;30484;52.382;5.260;2022-11-11T02:53:53;102879.06;;;13.49;100.00
44765;BME280;30484;52.382;5.260;2022-11-11T02:56:26;102875.97;;;13.63;100.00
44765;BME280;30484;52.382;5.260;2022-11-11T02:59:12;102877.78;;;13.62;100.00
44765;BME280;30484;52.382;5.260;2022-11-11T03:01:41;102874.81;;;13.72;100.00
44765;BME280;30484;52.382;5.260;2022-11-11T03:04:10;102881.94;;;13.73;100.00
44765;BME280;30484;52.382;5.260;2022-11-11T03:06:38;102890.22;;;13.34;100.00
44765;BME280;30484;52.382;5.260;2022-11-11T03:09:07;102893.41;;;13.50;100.00
44765;BME280;30484;52.382;5.260;2022-11-11T03:11:37;102891.63;;;13.78;100.00
44765;BME280;30484;52.382;5.260;2022-11-11T03:14:07;102886.72;;;13.63;100.00
44765;BME280;30484;52.382;5.260;2022-11-11T03:16:38;102892.44;;;13.51;100.00
44765;BME280;30484;52.382;5.260;2022-11-11T03:19:24;102898.31;;;13.63;100.00
44765;BME280;30484;52.382;5.260;2022-11-11T03:21:52;102895.13;;;13.80;100.00
44765;BME280;30484;52.382;5.260;2022-11-11T03:24:41;102894.78;;;13.63;100.00
44765;BME280;30484;52.382;5.260;2022-11-11T03:27:29;102906.28;;;13.67;100.00
44765;BME280;30484;52.382;5.260;2022-11-11T03:29:57;102900.66;;;13.76;100.00
44765;BME280;30484;52.382;5.260;2022-11-11T03:32:26;102904.53;;;13.95;100.00
44765;BME280;30484;52.382;5.260;2022-11-11T03:34:54;102892.81;;;13.96;100.00
44765;BME280;30484;52.382;5.260;2022-11-11T03:37:23;102889.69;;;13.82;100.00
44765;BME280;30484;52.382;5.260;2022-11-11T03:40:17;102886.25;;;14.07;100.00
44765;BME280;30484;52.382;5.260;2022-11-11T03:42:47;102882.59;;;13.81;100.00
44765;BME280;30484;52.382;5.260;2022-11-11T03:45:16;102889.28;;;13.96;100.00
44765;BME280;30484;52.382;5.260;2022-11-11T03:47:44;102889.84;;;13.77;100.00
44765;BME280;30484;52.382;5.260;2022-11-11T03:50:13;102887.59;;;13.92;100.00
44765;BME280;30484;52.382;5.260;2022-11-11T03:52:42;102878.25;;;13.77;100.00
44765;BME280;30484;52.382;5.260;2022-11-11T03:55:10;102883.16;;;13.91;100.00
44765;BME280;30484;52.382;5.260;2022-11-11T03:57:40;102888.66;;;13.58;100.00
44765;BME280;30484;52.382;5.260;2022-11-11T04:00:13;102892.78;;;13.40;100.00
44765;BME280;30484;52.382;5.260;2022-11-11T04:02:42;102885.75;;;13.36;100.00
44765;BME280;30484;52.382;5.260;2022-11-11T04:05:28;102882.41;;;13.57;100.00
44765;BME280;30484;52.382;5.260;2022-11-11T04:08:16;102880.28;;;13.69;100.00
44765;BME280;30484;52.382;5.260;2022-11-11T04:11:07;102878.00;;;13.55;100.00
44765;BME280;30484;52.382;5.260;2022-11-11T04:13:37;102879.59;;;13.30;100.00
44765;BME280;30484;52.382;5.260;2022-11-11T04:16:25;102882.94;;;13.07;100.00
44765;BME280;30484;52.382;5.260;2022-11-11T04:18:54;102876.75;;;13.04;100.00
44765;BME280;30484;52.382;5.260;2022-11-11T04:21:39;102873.72;;;12.85;100.00
44765;BME280;30484;52.382;5.260;2022-11-11T04:24:13;102879.13;;;13.48;100.00
44765;BME280;30484;52.382;5.260;2022-11-11T04:27:01;102865.25;;;13.32;100.00
44765;BME280;30484;52.382;5.260;2022-11-11T04:29:30;102849.38;;;13.54;100.00
44765;BME280;30484;52.382;5.260;2022-11-11T04:32:03;102862.69;;;13.58;100.00
44765;BME280;30484;52.382;5.260;2022-11-11T04:34:51;102878.47;;;13.06;100.00
44765;BME280;30484;52.382;5.260;2022-11-11T04:37:21;102871.06;;;13.48;100.00
44765;BME280;30484;52.382;5.260;2022-11-11T04:39:51;102871.84;;;13.81;100.00
44765;BME280;30484;52.382;5.260;2022-11-11T04:42:37;102874.59;;;13.17;100.00
44765;BME280;30484;52.382;5.260;2022-11-11T04:45:09;102879.69;;;13.59;100.00
44765;BME280;30484;52.382;5.260;2022-11-11T04:48:01;102878.34;;;13.42;100.00
44765;BME280;30484;52.382;5.260;2022-11-11T04:50:33;102882.66;;;13.48;100.00
44765;BME280;30484;52.382;5.260;2022-11-11T04:53:04;102872.88;;;13.47;100.00
44765;BME280;30484;52.382;5.260;2022-11-11T04:55:33;102876.91;;;13.90;100.00
44765;BME280;30484;52.382;5.260;2022-11-11T04:58:21;102875.56;;;13.47;100.00
44765;BME280;30484;52.382;5.260;2022-11-11T05:00:50;102886.53;;;13.06;100.00
44765;BME280;30484;52.382;5.260;2022-11-11T05:03:20;102868.22;;;13.21;100.00
44765;BME280;30484;52.382;5.260;2022-11-11T05:05:52;102879.06;;;13.18;100.00
44765;BME280;30484;52.382;5.260;2022-11-11T05:08:41;102886.41;;;13.44;100.00
44765;BME280;30484;52.382;5.260;2022-11-11T05:11:28;102885.25;;;13.53;100.00
44765;BME280;30484;52.382;5.260;2022-11-11T05:13:59;102878.88;;;13.24;100.00
44765;BME280;30484;52.382;5.260;2022-11-11T05:16:48;102878.81;;;13.58;100.00
44765;BME280;30484;52.382;5.260;2022-11-11T05:19:37;102884.94;;;13.62;100.00
44765;BME280;30484;52.382;5.260;2022-11-11T05:22:26;102876.56;;;13.43;100.00
44765;BME280;30484;52.382;5.260;2022-11-11T05:24:56;102871.91;;;13.78;100.00
44765;BME280;30484;52.382;5.260;2022-11-11T05:27:43;102877.41;;;14.03;100.00
44765;BME280;30484;52.382;5.260;2022-11-11T05:30:16;102867.63;;;14.01;100.00
44765;BME280;30484;52.382;5.260;2022-11-11T05:32:45;102878.72;;;13.90;100.00
44765;BME280;30484;52.382;5.260;2022-11-11T05:35:15;102870.94;;;13.80;100.00
44765;BME280;30484;52.382;5.260;2022-11-11T05:37:44;102879.34;;;13.40;100.00
44765;BME280;30484;52.382;5.260;2022-11-11T05:40:35;102885.41;;;14.05;100.00
44765;BME280;30484;52.382;5.260;2022-11-11T05:43:03;102885.22;;;13.83;100.00
44765;BME280;30484;52.382;5.260;2022-11-11T05:45:34;102877.41;;;13.45;100.00
44765;BME280;30484;52.382;5.260;2022-11-11T05:50:58;102883.13;;;13.33;100.00
44765;BME280;30484;52.382;5.260;2022-11-11T05:53:27;102881.38;;;13.91;100.00
44765;BME280;30484;52.382;5.260;2022-11-11T05:55:56;102881.75;;;13.79;100.00
44765;BME280;30484;52.382;5.260;2022-11-11T05:58:24;102878.28;;;14.30;100.00
44765;BME280;30484;52.382;5.260;2022-11-11T06:00:53;102878.78;;;13.88;100.00
44765;BME280;30484;52.382;5.260;2022-11-11T06:03:23;102895.09;;;14.10;100.00
44765;BME280;30484;52.382;5.260;2022-11-11T06:05:52;102884.84;;;13.34;100.00
44765;BME280;30484;52.382;5.260;2022-11-11T06:08:23;102899.22;;;13.64;100.00
44765;BME280;30484;52.382;5.260;2022-11-11T06:10:52;102894.97;;;13.87;100.00
44765;BME280;30484;52.382;5.260;2022-11-11T06:13:20;102881.75;;;13.79;100.00
44765;BME280;30484;52.382;5.260;2022-11-11T06:15:50;102903.53;;;13.70;100.00
44765;BME280;30484;52.382;5.260;2022-11-11T06:18:19;102923.91;;;13.77;100.00
44765;BME280;30484;52.382;5.260;2022-11-11T06:20:54;102921.81;;;13.25;100.00
44765;BME280;30484;52.382;5.260;2022-11-11T06:23:26;102928.44;;;13.75;100.00
44765;BME280;30484;52.382;5.260;2022-11-11T06:25:56;102934.03;;;13.37;100.00
44765;BME280;30484;52.382;5.260;2022-11-11T06:28:42;102937.78;;;13.61;100.00
44765;BME280;30484;52.382;5.260;2022-11-11T06:31:14;102938.25;;;13.46;100.00
44765;BME280;30484;52.382;5.260;2022-11-11T06:33:43;102946.13;;;13.19;100.00
44765;BME280;30484;52.382;5.260;2022-11-11T06:36:15;102944.81;;;13.34;100.00
44765;BME280;30484;52.382;5.260;2022-11-11T06:38:45;102944.94;;;13.29;100.00
44765;BME280;30484;52.382;5.260;2022-11-11T06:41:14;102956.34;;;13.05;100.00
44765;BME280;30484;52.382;5.260;2022-11-11T06:43:43;102953.16;;;13.23;100.00
44765;BME280;30484;52.382;5.260;2022-11-11T06:46:16;102946.19;;;13.16;100.00
44765;BME280;30484;52.382;5.260;2022-11-11T06:48:49;102944.22;;;13.56;100.00
44765;BME280;30484;52.382;5.260;2022-11-11T06:51:19;102943.91;;;13.37;100.00
44765;BME280;30484;52.382;5.260;2022-11-11T06:53:50;102942.44;;;13.23;100.00
44765;BME280;30484;52.382;5.260;2022-11-11T06:56:18;102943.53;;;13.49;100.00
44765;BME280;30484;52.382;5.260;2022-11-11T06:58:47;102936.66;;;13.39;100.00
44765;BME280;30484;52.382;5.260;2022-11-11T07:01:16;102933.84;;;13.10;100.00
44765;BME280;30484;52.382;5.260;2022-11-11T07:03:45;102940.88;;;13.48;100.00
44765;BME280;30484;52.382;5.260;2022-11-11T07:06:14;102927.75;;;13.04;100.00
44765;BME280;30484;52.382;5.260;2022-11-11T07:08:43;102940.75;;;13.19;100.00
44765;BME280;30484;52.382;5.260;2022-11-11T07:11:13;102952.34;;;12.88;100.00
44765;BME280;30484;52.382;5.260;2022-11-11T07:13:45;102947.13;;;13.15;100.00
44765;BME280;30484;52.382;5.260;2022-11-11T07:16:14;102955.84;;;12.90;100.00
44765;BME280;30484;52.382;5.260;2022-11-11T07:18:44;102955.34;;;13.09;100.00
44765;BME280;30484;52.382;5.260;2022-11-11T07:21:13;102963.25;;;12.81;100.00
44765;BME280;30484;52.382;5.260;2022-11-11T07:23:42;102957.84;;;12.82;100.00
44765;BME280;30484;52.382;5.260;2022-11-11T07:26:12;102968.25;;;12.94;100.00
44765;BME280;30484;52.382;5.260;2022-11-11T07:28:42;102967.22;;;12.66;100.00
44765;BME280;30484;52.382;5.260;2022-11-11T07:31:10;102959.84;;;13.08;100.00
44765;BME280;30484;52.382;5.260;2022-11-11T07:33:39;102966.75;;;13.17;100.00
44765;BME280;30484;52.382;5.260;2022-11-11T07:36:08;102960.22;;;13.27;100.00
44765;BME280;30484;52.382;5.260;2022-11-11T07:38:37;102968.78;;;12.74;100.00
44765;BME280;30484;52.382;5.260;2022-11-11T07:41:06;102975.13;;;12.70;100.00
44765;BME280;30484;52.382;5.260;2022-11-11T07:43:38;102977.81;;;13.05;100.00
44765;BME280;30484;52.382;5.260;2022-11-11T07:46:06;102967.84;;;13.10;100.00
44765;BME280;30484;52.382;5.260;2022-11-11T07:48:35;102972.88;;;12.88;100.00
44765;BME280;30484;52.382;5.260;2022-11-11T07:51:04;102973.31;;;13.07;100.00
44765;BME280;30484;52.382;5.260;2022-11-11T07:53:33;102988.34;;;12.78;100.00
44765;BME280;30484;52.382;5.260;2022-11-11T07:56:02;102988.84;;;12.94;100.00
44765;BME280;30484;52.382;5.260;2022-11-11T07:58:30;102998.16;;;12.79;100.00
44765;BME280;30484;52.382;5.260;2022-11-11T08:01:00;102995.75;;;12.67;100.00
44765;BME280;30484;52.382;5.260;2022-11-11T08:03:35;102993.16;;;13.00;100.00
44765;BME280;30484;52.382;5.260;2022-11-11T08:06:16;102989.09;;;13.18;100.00
44765;BME280;30484;52.382;5.260;2022-11-11T08:08:48;103003.94;;;13.33;100.00
44765;BME280;30484;52.382;5.260;2022-11-11T08:11:17;102998.53;;;13.34;100.00
44765;BME280;30484;52.382;5.260;2022-11-11T08:14:06;102990.25;;;13.09;100.00
44765;BME280;30484;52.382;5.260;2022-11-11T08:16:35;102999.28;;;13.39;100.00
44765;BME280;30484;52.382;5.260;2022-11-11T08:19:04;103009.09;;;13.06;100.00
44765;BME280;30484;52.382;5.260;2022-11-11T08:21:33;103013.09;;;13.24;100.00
44765;BME280;30484;52.382;5.260;2022-11-11T08:24:02;103012.84;;;13.35;100.00
44765;BME280;30484;52.382;5.260;2022-11-11T08:26:51;103010.44;;;13.22;100.00
44765;BME280;30484;52.382;5.260;2022-11-11T08:29:20;103021.75;;;13.01;100.00
44765;BME280;30484;52.382;5.260;2022-11-11T08:31:52;103003.66;;;13.75;100.00
44765;BME280;30484;52.382;5.260;2022-11-11T08:34:22;103004.19;;;13.56;100.00
44765;BME280;30484;52.382;5.260;2022-11-11T08:36:50;103006.84;;;13.23;100.00
44765;BME280;30484;52.382;5.260;2022-11-11T08:39:20;103013.53;;;13.43;100.00
44765;BME280;30484;52.382;5.260;2022-11-11T08:41:52;103009.59;;;13.86;100.00
44765;BME280;30484;52.382;5.260;2022-11-11T08:44:21;103017.50;;;13.92;100.00
44765;BME280;30484;52.382;5.260;2022-11-11T08:46:50;103016.66;;;13.90;100.00
44765;BME280;30484;52.382;5.260;2022-11-11T08:49:22;103017.28;;;13.69;100.00
44765;BME280;30484;52.382;5.260;2022-11-11T08:51:51;103020.28;;;13.23;100.00
44765;BME280;30484;52.382;5.260;2022-11-11T08:54:20;103024.47;;;13.34;100.00
44765;BME280;30484;52.382;5.260;2022-11-11T08:56:49;103029.84;;;13.67;100.00
44765;BME280;30484;52.382;5.260;2022-11-11T08:59:18;103020.16;;;13.61;100.00
44765;BME280;30484;52.382;5.260;2022-11-11T09:01:47;103037.31;;;13.88;100.00
44765;BME280;30484;52.382;5.260;2022-11-11T09:04:16;103028.28;;;14.21;100.00
44765;BME280;30484;52.382;5.260;2022-11-11T09:07:08;103029.41;;;14.42;100.00
44765;BME280;30484;52.382;5.260;2022-11-11T09:09:37;103041.13;;;14.11;100.00
44765;BME280;30484;52.382;5.260;2022-11-11T09:12:06;103050.34;;;13.71;100.00
44765;BME280;30484;52.382;5.260;2022-11-11T09:14:34;103045.66;;;14.09;100.00
44765;BME280;30484;52.382;5.260;2022-11-11T09:17:04;103052.38;;;13.94;100.00
44765;BME280;30484;52.382;5.260;2022-11-11T09:19:37;103064.03;;;14.24;100.00
44765;BME280;30484;52.382;5.260;2022-11-11T09:22:08;103059.72;;;14.48;100.00
44765;BME280;30484;52.382;5.260;2022-11-11T09:24:36;103052.38;;;14.54;100.00
44765;BME280;30484;52.382;5.260;2022-11-11T09:27:05;103054.81;;;14.61;100.00
44765;BME280;30484;52.382;5.260;2022-11-11T09:29:34;103064.84;;;14.26;100.00
44765;BME280;30484;52.382;5.260;2022-11-11T09:32:04;103077.56;;;14.21;100.00
44765;BME280;30484;52.382;5.260;2022-11-11T09:34:33;103071.53;;;14.43;100.00
44765;BME280;30484;52.382;5.260;2022-11-11T09:37:02;103065.69;;;14.58;100.00
44765;BME280;30484;52.382;5.260;2022-11-11T09:39:33;103072.75;;;14.62;100.00
44765;BME280;30484;52.382;5.260;2022-11-11T09:42:09;103069.28;;;13.97;100.00
44765;BME280;30484;52.382;5.260;2022-11-11T09:45:08;103076.34;;;14.61;100.00
44765;BME280;30484;52.382;5.260;2022-11-11T09:47:52;103074.31;;;14.70;100.00
44765;BME280;30484;52.382;5.260;2022-11-11T09:50:34;103072.56;;;14.69;100.00
44765;BME280;30484;52.382;5.260;2022-11-11T09:53:14;103080.81;;;14.32;100.00
44765;BME280;30484;52.382;5.260;2022-11-11T09:55:54;103084.84;;;14.47;100.00
44765;BME280;30484;52.382;5.260;2022-11-11T09:58:28;103090.59;;;14.35;100.00
44765;BME280;30484;52.382;5.260;2022-11-11T10:01:06;103093.91;;;14.13;100.00
44765;BME280;30484;52.382;5.260;2022-11-11T10:03:40;103093.25;;;14.37;100.00
44765;BME280;30484;52.382;5.260;2022-11-11T10:06:18;103106.13;;;14.55;100.00
44765;BME280;30484;52.382;5.260;2022-11-11T10:08:57;103096.56;;;14.45;100.00
44765;BME280;30484;52.382;5.260;2022-11-11T10:11:42;103112.91;;;14.39;100.00
44765;BME280;30484;52.382;5.260;2022-11-11T10:14:15;103101.66;;;14.54;100.00
44765;BME280;30484;52.382;5.260;2022-11-11T10:17:00;103110.25;;;14.37;100.00
44765;BME280;30484;52.382;5.260;2022-11-11T10:19:39;103105.91;;;14.63;100.00
44765;BME280;30484;52.382;5.260;2022-11-11T10:22:20;103103.72;;;14.46;100.00
44765;BME280;30484;52.382;5.260;2022-11-11T10:25:02;103114.41;;;14.47;100.00
44765;BME280;30484;52.382;5.260;2022-11-11T10:27:35;103115.22;;;14.21;100.00
44765;BME280;30484;52.382;5.260;2022-11-11T10:30:16;103121.06;;;14.04;100.00
44765;BME280;30484;52.382;5.260;2022-11-11T10:33:00;103127.00;;;13.84;100.00
44765;BME280;30484;52.382;5.260;2022-11-11T10:35:32;103127.88;;;13.85;100.00
44765;BME280;30484;52.382;5.260;2022-11-11T10:38:24;103109.31;;;14.08;100.00
44765;BME280;30484;52.382;5.260;2022-11-11T10:41:17;103112.38;;;14.26;100.00
44765;BME280;30484;52.382;5.260;2022-11-11T10:43:56;103112.03;;;14.07;100.00
44765;BME280;30484;52.382;5.260;2022-11-11T10:46:28;103107.50;;;14.39;100.00
44765;BME280;30484;52.382;5.260;2022-11-11T10:49:09;103114.84;;;14.02;100.00
44765;BME280;30484;52.382;5.260;2022-11-11T10:51:45;103106.47;;;14.13;100.00
44765;BME280;30484;52.382;5.260;2022-11-11T10:54:18;103105.38;;;14.20;100.00
44765;BME280;30484;52.382;5.260;2022-11-11T10:56:54;103113.03;;;14.34;100.00
44765;BME280;30484;52.382;5.260;2022-11-11T10:59:31;103118.31;;;13.74;100.00
44765;BME280;30484;52.382;5.260;2022-11-11T11:02:12;103118.72;;;13.92;100.00
44765;BME280;30484;52.382;5.260;2022-11-11T11:04:46;103116.38;;;14.12;100.00
44765;BME280;30484;52.382;5.260;2022-11-11T11:07:21;103108.16;;;14.47;100.00
44765;BME280;30484;52.382;5.260;2022-11-11T11:09:55;103100.81;;;14.54;100.00
44765;BME280;30484;52.382;5.260;2022-11-11T11:12:33;103101.44;;;14.32;100.00
44765;BME280;30484;52.382;5.260;2022-11-11T11:15:14;103089.66;;;14.66;100.00
44765;BME280;30484;52.382;5.260;2022-11-11T11:17:53;103088.31;;;14.21;100.00
44765;BME280;30484;52.382;5.260;2022-11-11T11:20:23;103097.22;;;14.23;100.00
44765;BME280;30484;52.382;5.260;2022-11-11T11:22:55;103094.81;;;14.44;100.00
44765;BME280;30484;52.382;5.260;2022-11-11T11:25:31;103097.78;;;14.35;100.00
44765;BME280;30484;52.382;5.260;2022-11-11T11:28:08;103093.81;;;14.48;100.00
44765;BME280;30484;52.382;5.260;2022-11-11T11:30:39;103090.75;;;14.59;100.00
44765;BME280;30484;52.382;5.260;2022-11-11T11:33:08;103087.78;;;14.70;100.00
44765;BME280;30484;52.382;5.260;2022-11-11T11:35:42;103084.97;;;14.73;100.00
44765;BME280;30484;52.382;5.260;2022-11-11T11:38:12;103088.78;;;14.36;100.00
44765;BME280;30484;52.382;5.260;2022-11-11T11:40:49;103084.69;;;14.52;100.00
44765;BME280;30484;52.382;5.260;2022-11-11T11:43:32;103080.91;;;14.59;100.00
44765;BME280;30484;52.382;5.260;2022-11-11T11:46:18;103082.53;;;14.65;100.00
44765;BME280;30484;52.382;5.260;2022-11-11T11:49:10;103075.44;;;14.32;100.00
44765;BME280;30484;52.382;5.260;2022-11-11T11:51:48;103066.69;;;14.84;100.00
44765;BME280;30484;52.382;5.260;2022-11-11T11:54:40;103083.25;;;14.10;100.00
44765;BME280;30484;52.382;5.260;2022-11-11T11:57:38;103077.19;;;15.18;100.00
44765;BME280;30484;52.382;5.260;2022-11-11T12:00:17;103077.13;;;14.93;100.00
44765;BME280;30484;52.382;5.260;2022-11-11T12:03:30;103070.19;;;15.13;100.00
44765;BME280;30484;52.382;5.260;2022-11-11T12:06:12;103067.91;;;15.00;100.00
44765;BME280;30484;52.382;5.260;2022-11-11T12:08:56;103072.78;;;14.89;100.00
44765;BME280;30484;52.382;5.260;2022-11-11T12:11:38;103081.19;;;15.33;100.00
44765;BME280;30484;52.382;5.260;2022-11-11T12:15:00;103074.66;;;15.14;100.00
44765;BME280;30484;52.382;5.260;2022-11-11T12:17:47;103051.84;;;15.51;100.00
44765;BME280;30484;52.382;5.260;2022-11-11T12:20:26;103059.53;;;15.10;100.00
44765;BME280;30484;52.382;5.260;2022-11-11T12:23:28;103052.47;;;15.32;100.00
44765;BME280;30484;52.382;5.260;2022-11-11T12:26:12;103057.00;;;15.57;100.00
44765;BME280;30484;52.382;5.260;2022-11-11T12:29:21;103057.72;;;15.10;100.00
44765;BME280;30484;52.382;5.260;2022-11-11T12:32:06;103040.78;;;14.80;100.00
44765;BME280;30484;52.382;5.260;2022-11-11T12:35:04;103059.38;;;15.14;100.00
44765;BME280;30484;52.382;5.260;2022-11-11T12:37:49;103062.47;;;15.04;100.00
44765;BME280;30484;52.382;5.260;2022-11-11T12:40:33;103068.09;;;15.23;100.00
44765;BME280;30484;52.382;5.260;2022-11-11T12:43:16;103073.69;;;15.42;100.00
44765;BME280;30484;52.382;5.260;2022-11-11T12:45:55;103074.66;;;15.14;100.00
44765;BME280;30484;52.382;5.260;2022-11-11T12:48:42;103070.53;;;15.56;100.00
44765;BME280;30484;52.382;5.260;2022-11-11T12:51:30;103067.50;;;15.40;100.00
44765;BME280;30484;52.382;5.260;2022-11-11T12:54:14;103062.72;;;15.48;100.00
44765;BME280;30484;52.382;5.260;2022-11-11T12:56:54;103066.31;;;14.95;100.00
44765;BME280;30484;52.382;5.260;2022-11-11T12:59:39;103066.50;;;15.42;100.00
44765;BME280;30484;52.382;5.260;2022-11-11T13:02:33;103060.41;;;15.62;100.00
44765;BME280;30484;52.382;5.260;2022-11-11T13:05:10;103059.84;;;15.27;100.00
44765;BME280;30484;52.382;5.260;2022-11-11T13:08:11;103059.31;;;14.89;100.00
44765;BME280;30484;52.382;5.260;2022-11-11T13:10:53;103057.78;;;15.61;100.00
44765;BME280;30484;52.382;5.260;2022-11-11T13:13:43;103047.66;;;15.42;100.00
44765;BME280;30484;52.382;5.260;2022-11-11T13:16:15;103054.03;;;15.90;100.00
44765;BME280;30484;52.382;5.260;2022-11-11T13:18:52;103058.31;;;15.45;100.00
44765;BME280;30484;52.382;5.260;2022-11-11T13:21:41;103056.06;;;15.58;100.00
44765;BME280;30484;52.382;5.260;2022-11-11T13:24:21;103051.19;;;15.95;100.00